sensor_id;sensor_type;location;lat;lon;timestamp;temperature;humidity
21805;DHT22;11064;47.102;15.452;2023-06-22T04:01:20;18.00;99.90
21805;DHT22;11064;47.102;15.452;2023-06-22T04:03:46;18.30;99.90
21805;DHT22;11064;47.102;15.452;2023-06-22T04:06:14;18.60;99.90
21805;DHT22;11064;47.102;15.452;2023-06-22T04:08:40;19.00;99.90
21805;DHT22;11064;47.102;15.452;2023-06-22T04:11:06;19.50;99.90
21805;DHT22;11064;47.102;15.452;2023-06-22T04:13:32;19.80;99.90
21805;DHT22;11064;47.102;15.452;2023-06-22T04:15:58;20.00;99.90
21805;DHT22;11064;47.102;15.452;2023-06-22T04:18:23;20.30;99.90
21805;DHT22;11064;47.102;15.452;2023-06-22T04:20:49;20.50;99.90
21805;DHT22;11064;47.102;15.452;2023-06-22T04:23:15;20.50;99.90
21805;DHT22;11064;47.102;15.452;2023-06-22T04:25:41;21.00;99.90
21805;DHT22;11064;47.102;15.452;2023-06-22T04:28:07;21.30;99.90
21805;DHT22;11064;47.102;15.452;2023-06-22T04:30:38;21.70;99.90
21805;DHT22;11064;47.102;15.452;2023-06-22T04:33:15;22.40;99.90
21805;DHT22;11064;47.102;15.452;2023-06-22T04:35:41;22.80;99.90
21805;DHT22;11064;47.102;15.452;2023-06-22T04:38:08;23.10;99.90
21805;DHT22;11064;47.102;15.452;2023-06-22T04:40:34;23.40;99.90
21805;DHT22;11064;47.102;15.452;2023-06-22T04:42:59;23.30;99.90
21805;DHT22;11064;47.102;15.452;2023-06-22T04:45:28;23.30;99.90
21805;DHT22;11064;47.102;15.452;2023-06-22T04:47:57;23.60;99.90
21805;DHT22;11064;47.102;15.452;2023-06-22T04:50:23;24.40;99.90
21805;DHT22;11064;47.102;15.452;2023-06-22T04:52:50;24.60;99.90
21805;DHT22;11064;47.102;15.452;2023-06-22T04:55:16;25.10;99.90
21805;DHT22;11064;47.102;15.452;2023-06-22T04:57:47;25.10;99.90
21805;DHT22;11064;47.102;15.452;2023-06-22T05:00:18;25.40;99.90
21805;DHT22;11064;47.102;15.452;2023-06-22T05:02:46;25.80;99.90
21805;DHT22;11064;47.102;15.452;2023-06-22T05:05:13;25.90;99.90
21805;DHT22;11064;47.102;15.452;2023-06-22T05:07:43;26.50;99.90
21805;DHT22;11064;47.102;15.452;2023-06-22T05:10:11;26.50;99.90
21805;DHT22;11064;47.102;15.452;2023-06-22T05:12:38;26.80;99.90
21805;DHT22;11064;47.102;15.452;2023-06-22T05:15:05;26.90;99.90
21805;DHT22;11064;47.102;15.452;2023-06-22T05:17:32;26.70;99.90
21805;DHT22;11064;47.102;15.452;2023-06-22T05:19:58;26.30;99.90
21805;DHT22;11064;47.102;15.452;2023-06-22T05:22:23;26.10;99.90
21805;DHT22;11064;47.102;15.452;2023-06-22T05:24:49;26.30;99.90
21805;DHT22;11064;47.102;15.452;2023-06-22T05:27:15;26.60;99.40
21805;DHT22;11064;47.102;15.452;2023-06-22T05:29:41;27.00;99.40
21805;DHT22;11064;47.102;15.452;2023-06-22T05:32:08;27.50;98.00
21805;DHT22;11064;47.102;15.452;2023-06-22T05:34:34;27.10;97.60
21805;DHT22;11064;47.102;15.452;2023-06-22T05:37:00;26.30;99.10
21805;DHT22;11064;47.102;15.452;2023-06-22T05:39:26;26.20;98.90
21805;DHT22;11064;47.102;15.452;2023-06-22T05:41:52;26.30;98.30
21805;DHT22;11064;47.102;15.452;2023-06-22T05:44:18;26.80;99.20
21805;DHT22;11064;47.102;15.452;2023-06-22T05:46:44;28.20;96.80
21805;DHT22;11064;47.102;15.452;2023-06-22T05:49:12;29.90;94.10
21805;DHT22;11064;47.102;15.452;2023-06-22T05:51:39;29.90;90.90
21805;DHT22;11064;47.102;15.452;2023-06-22T05:54:04;29.90;89.30
21805;DHT22;11064;47.102;15.452;2023-06-22T05:56:30;30.60;88.20
21805;DHT22;11064;47.102;15.452;2023-06-22T05:58:56;30.90;82.60
21805;DHT22;11064;47.102;15.452;2023-06-22T06:01:22;31.70;81.90
21805;DHT22;11064;47.102;15.452;2023-06-22T06:03:48;31.70;77.90
21805;DHT22;11064;47.102;15.452;2023-06-22T06:06:15;31.50;77.10
21805;DHT22;11064;47.102;15.452;2023-06-22T06:08:42;30.80;80.00
21805;DHT22;11064;47.102;15.452;2023-06-22T06:11:07;31.00;78.50
21805;DHT22;11064;47.102;15.452;2023-06-22T06:13:33;30.80;78.60
21805;DHT22;11064;47.102;15.452;2023-06-22T06:15:59;30.60;80.00
21805;DHT22;11064;47.102;15.452;2023-06-22T06:18:25;30.50;80.80
21805;DHT22;11064;47.102;15.452;2023-06-22T06:20:51;29.90;80.10
21805;DHT22;11064;47.102;15.452;2023-06-22T06:23:16;29.50;81.80
21805;DHT22;11064;47.102;15.452;2023-06-22T06:25:42;29.60;82.10
21805;DHT22;11064;47.102;15.452;2023-06-22T06:28:08;30.20;80.70
21805;DHT22;11064;47.102;15.452;2023-06-22T06:30:34;29.80;79.50
21805;DHT22;11064;47.102;15.452;2023-06-22T06:33:03;30.20;79.30
21805;DHT22;11064;47.102;15.452;2023-06-22T06:35:34;30.30;78.30
21805;DHT22;11064;47.102;15.452;2023-06-22T06:38:00;30.10;79.50
21805;DHT22;11064;47.102;15.452;2023-06-22T06:40:26;30.00;80.40
21805;DHT22;11064;47.102;15.452;2023-06-22T06:42:51;29.00;84.30
21805;DHT22;11064;47.102;15.452;2023-06-22T06:45:23;28.30;88.70
21805;DHT22;11064;47.102;15.452;2023-06-22T06:47:51;27.90;91.20
21805;DHT22;11064;47.102;15.452;2023-06-22T06:50:17;27.10;92.70
21805;DHT22;11064;47.102;15.452;2023-06-22T06:52:44;27.00;94.30
21805;DHT22;11064;47.102;15.452;2023-06-22T06:55:10;26.60;94.60
21805;DHT22;11064;47.102;15.452;2023-06-22T06:57:41;26.70;96.20
21805;DHT22;11064;47.102;15.452;2023-06-22T07:00:09;26.80;96.20
21805;DHT22;11064;47.102;15.452;2023-06-22T07:02:41;27.00;97.70
21805;DHT22;11064;47.102;15.452;2023-06-22T07:05:07;27.10;96.80
21805;DHT22;11064;47.102;15.452;2023-06-22T07:07:34;27.10;95.80
21805;DHT22;11064;47.102;15.452;2023-06-22T07:10:00;26.70;97.40
21805;DHT22;11064;47.102;15.452;2023-06-22T07:12:26;27.10;97.90
21805;DHT22;11064;47.102;15.452;2023-06-22T07:14:52;27.10;96.60
21805;DHT22;11064;47.102;15.452;2023-06-22T07:17:18;27.10;99.00
21805;DHT22;11064;47.102;15.452;2023-06-22T07:19:44;27.30;97.70
21805;DHT22;11064;47.102;15.452;2023-06-22T07:22:10;27.40;95.40
21805;DHT22;11064;47.102;15.452;2023-06-22T07:24:36;27.40;96.60
21805;DHT22;11064;47.102;15.452;2023-06-22T07:27:03;27.80;96.10
21805;DHT22;11064;47.102;15.452;2023-06-22T07:29:30;28.30;95.80
21805;DHT22;11064;47.102;15.452;2023-06-22T07:31:57;28.40;93.30
21805;DHT22;11064;47.102;15.452;2023-06-22T07:34:23;28.50;94.00
21805;DHT22;11064;47.102;15.452;2023-06-22T07:36:49;28.80;93.70
21805;DHT22;11064;47.102;15.452;2023-06-22T07:39:14;28.70;95.40
21805;DHT22;11064;47.102;15.452;2023-06-22T07:41:40;28.80;91.10
21805;DHT22;11064;47.102;15.452;2023-06-22T07:44:06;28.40;92.20
21805;DHT22;11064;47.102;15.452;2023-06-22T07:46:33;28.00;93.20
21805;DHT22;11064;47.102;15.452;2023-06-22T07:48:59;28.10;94.50
21805;DHT22;11064;47.102;15.452;2023-06-22T07:51:25;28.20;94.70
21805;DHT22;11064;47.102;15.452;2023-06-22T07:53:51;28.60;93.20
21805;DHT22;11064;47.102;15.452;2023-06-22T07:56:17;28.60;92.90
21805;DHT22;11064;47.102;15.452;2023-06-22T07:58:47;28.50;92.70
21805;DHT22;11064;47.102;15.452;2023-06-22T08:01:14;28.80;93.00
21805;DHT22;11064;47.102;15.452;2023-06-22T08:03:40;28.90;92.40
21805;DHT22;11064;47.102;15.452;2023-06-22T08:06:08;28.60;93.00
21805;DHT22;11064;47.102;15.452;2023-06-22T08:08:35;28.70;94.00
21805;DHT22;11064;47.102;15.452;2023-06-22T08:11:01;29.10;93.10
21805;DHT22;11064;47.102;15.452;2023-06-22T08:13:27;29.20;93.60
21805;DHT22;11064;47.102;15.452;2023-06-22T08:15:53;29.60;93.60
21805;DHT22;11064;47.102;15.452;2023-06-22T08:18:19;29.90;93.60
21805;DHT22;11064;47.102;15.452;2023-06-22T08:20:45;30.00;92.70
21805;DHT22;11064;47.102;15.452;2023-06-22T08:23:10;29.70;91.70
21805;DHT22;11064;47.102;15.452;2023-06-22T08:25:36;29.50;91.00
21805;DHT22;11064;47.102;15.452;2023-06-22T08:28:03;29.20;92.90
21805;DHT22;11064;47.102;15.452;2023-06-22T08:30:29;29.00;92.20
21805;DHT22;11064;47.102;15.452;2023-06-22T08:32:55;29.30;90.20
21805;DHT22;11064;47.102;15.452;2023-06-22T08:35:24;29.40;89.30
21805;DHT22;11064;47.102;15.452;2023-06-22T08:37:50;29.30;88.50
21805;DHT22;11064;47.102;15.452;2023-06-22T08:40:20;29.60;88.60
21805;DHT22;11064;47.102;15.452;2023-06-22T08:42:47;29.70;89.10
21805;DHT22;11064;47.102;15.452;2023-06-22T08:45:14;29.70;90.00
21805;DHT22;11064;47.102;15.452;2023-06-22T08:47:41;29.90;91.30
21805;DHT22;11064;47.102;15.452;2023-06-22T08:50:08;29.50;89.00
21805;DHT22;11064;47.102;15.452;2023-06-22T08:52:35;29.60;90.30
21805;DHT22;11064;47.102;15.452;2023-06-22T08:55:01;29.10;86.70
21805;DHT22;11064;47.102;15.452;2023-06-22T08:57:27;29.50;87.30
21805;DHT22;11064;47.102;15.452;2023-06-22T08:59:54;29.50;90.40
21805;DHT22;11064;47.102;15.452;2023-06-22T09:02:26;29.30;90.20
21805;DHT22;11064;47.102;15.452;2023-06-22T09:05:02;29.50;87.90
21805;DHT22;11064;47.102;15.452;2023-06-22T09:07:28;29.60;87.50
21805;DHT22;11064;47.102;15.452;2023-06-22T09:09:55;29.70;85.30
21805;DHT22;11064;47.102;15.452;2023-06-22T09:12:21;30.20;87.40
21805;DHT22;11064;47.102;15.452;2023-06-22T09:14:51;30.50;87.80
21805;DHT22;11064;47.102;15.452;2023-06-22T09:17:17;30.80;88.40
21805;DHT22;11064;47.102;15.452;2023-06-22T09:19:43;30.90;88.30
21805;DHT22;11064;47.102;15.452;2023-06-22T09:22:09;31.20;87.60
21805;DHT22;11064;47.102;15.452;2023-06-22T09:24:35;31.50;86.80
21805;DHT22;11064;47.102;15.452;2023-06-22T09:27:01;31.30;84.40
21805;DHT22;11064;47.102;15.452;2023-06-22T09:29:26;31.50;85.10
21805;DHT22;11064;47.102;15.452;2023-06-22T09:31:52;31.60;86.10
21805;DHT22;11064;47.102;15.452;2023-06-22T09:34:19;31.50;77.70
21805;DHT22;11064;47.102;15.452;2023-06-22T09:36:49;31.20;79.60
21805;DHT22;11064;47.102;15.452;2023-06-22T09:39:14;31.10;78.50
21805;DHT22;11064;47.102;15.452;2023-06-22T09:41:40;31.20;74.00
21805;DHT22;11064;47.102;15.452;2023-06-22T09:44:06;30.90;76.30
21805;DHT22;11064;47.102;15.452;2023-06-22T09:46:32;30.90;76.00
21805;DHT22;11064;47.102;15.452;2023-06-22T09:48:58;31.40;80.20
21805;DHT22;11064;47.102;15.452;2023-06-22T09:51:24;31.50;80.20
21805;DHT22;11064;47.102;15.452;2023-06-22T09:53:50;31.40;77.90
21805;DHT22;11064;47.102;15.452;2023-06-22T09:56:16;31.20;78.50
21805;DHT22;11064;47.102;15.452;2023-06-22T09:58:42;31.40;82.10
21805;DHT22;11064;47.102;15.452;2023-06-22T10:01:09;31.30;80.20
21805;DHT22;11064;47.102;15.452;2023-06-22T10:03:36;31.20;82.20
21805;DHT22;11064;47.102;15.452;2023-06-22T10:06:03;31.20;83.30
21805;DHT22;11064;47.102;15.452;2023-06-22T10:08:29;31.20;81.30
21805;DHT22;11064;47.102;15.452;2023-06-22T10:10:55;31.20;79.00
21805;DHT22;11064;47.102;15.452;2023-06-22T10:13:21;30.90;82.10
21805;DHT22;11064;47.102;15.452;2023-06-22T10:15:47;30.90;85.50
21805;DHT22;11064;47.102;15.452;2023-06-22T10:18:17;31.30;81.90
21805;DHT22;11064;47.102;15.452;2023-06-22T10:20:44;31.20;82.10
21805;DHT22;11064;47.102;15.452;2023-06-22T10:23:10;31.20;82.00
21805;DHT22;11064;47.102;15.452;2023-06-22T10:25:36;30.50;82.00
21805;DHT22;11064;47.102;15.452;2023-06-22T10:28:02;30.80;84.10
21805;DHT22;11064;47.102;15.452;2023-06-22T10:30:28;31.00;86.00
21805;DHT22;11064;47.102;15.452;2023-06-22T10:32:54;30.90;86.60
21805;DHT22;11064;47.102;15.452;2023-06-22T10:35:20;30.60;83.70
21805;DHT22;11064;47.102;15.452;2023-06-22T10:37:46;30.70;84.30
21805;DHT22;11064;47.102;15.452;2023-06-22T10:40:13;30.50;84.60
21805;DHT22;11064;47.102;15.452;2023-06-22T10:42:40;30.00;85.40
21805;DHT22;11064;47.102;15.452;2023-06-22T10:45:07;30.10;89.10
21805;DHT22;11064;47.102;15.452;2023-06-22T10:47:34;29.90;85.90
21805;DHT22;11064;47.102;15.452;2023-06-22T10:50:00;30.00;83.70
21805;DHT22;11064;47.102;15.452;2023-06-22T10:52:25;29.90;82.00
21805;DHT22;11064;47.102;15.452;2023-06-22T10:54:51;30.20;87.50
21805;DHT22;11064;47.102;15.452;2023-06-22T10:57:18;30.30;83.90
21805;DHT22;11064;47.102;15.452;2023-06-22T10:59:44;30.10;82.60
21805;DHT22;11064;47.102;15.452;2023-06-22T11:02:10;30.40;90.10
21805;DHT22;11064;47.102;15.452;2023-06-22T11:04:35;30.80;82.40
21805;DHT22;11064;47.102;15.452;2023-06-22T11:07:01;31.10;87.10
21805;DHT22;11064;47.102;15.452;2023-06-22T11:09:27;31.20;83.50
21805;DHT22;11064;47.102;15.452;2023-06-22T11:11:53;31.50;85.80
21805;DHT22;11064;47.102;15.452;2023-06-22T11:14:19;31.50;87.20
21805;DHT22;11064;47.102;15.452;2023-06-22T11:16:46;31.40;87.50
21805;DHT22;11064;47.102;15.452;2023-06-22T11:19:12;31.00;81.00
21805;DHT22;11064;47.102;15.452;2023-06-22T11:21:38;31.20;82.40
21805;DHT22;11064;47.102;15.452;2023-06-22T11:24:04;31.50;87.00
21805;DHT22;11064;47.102;15.452;2023-06-22T11:26:30;31.60;84.90
21805;DHT22;11064;47.102;15.452;2023-06-22T11:28:58;31.40;80.60
21805;DHT22;11064;47.102;15.452;2023-06-22T11:31:23;31.10;85.70
21805;DHT22;11064;47.102;15.452;2023-06-22T11:33:49;30.60;84.10
21805;DHT22;11064;47.102;15.452;2023-06-22T11:36:16;30.90;84.90
21805;DHT22;11064;47.102;15.452;2023-06-22T11:38:42;30.90;87.50
21805;DHT22;11064;47.102;15.452;2023-06-22T11:41:09;31.20;80.40
21805;DHT22;11064;47.102;15.452;2023-06-22T11:43:36;31.40;81.40
21805;DHT22;11064;47.102;15.452;2023-06-22T11:46:03;31.50;87.70
21805;DHT22;11064;47.102;15.452;2023-06-22T11:48:30;31.40;86.20
21805;DHT22;11064;47.102;15.452;2023-06-22T11:50:55;31.90;86.50
21805;DHT22;11064;47.102;15.452;2023-06-22T11:53:23;32.10;85.10
21805;DHT22;11064;47.102;15.452;2023-06-22T11:55:49;32.30;84.80
21805;DHT22;11064;47.102;15.452;2023-06-22T11:58:15;32.40;82.30
21805;DHT22;11064;47.102;15.452;2023-06-22T12:00:41;32.70;83.10
21805;DHT22;11064;47.102;15.452;2023-06-22T12:03:07;32.20;83.80
21805;DHT22;11064;47.102;15.452;2023-06-22T12:05:34;32.00;84.80
21805;DHT22;11064;47.102;15.452;2023-06-22T12:08:00;32.20;83.90
21805;DHT22;11064;47.102;15.452;2023-06-22T12:10:27;32.60;84.90
21805;DHT22;11064;47.102;15.452;2023-06-22T12:12:56;32.70;82.30
21805;DHT22;11064;47.102;15.452;2023-06-22T12:15:23;32.40;83.40
21805;DHT22;11064;47.102;15.452;2023-06-22T12:17:49;32.50;82.30
21805;DHT22;11064;47.102;15.452;2023-06-22T12:20:15;32.40;82.00
21805;DHT22;11064;47.102;15.452;2023-06-22T12:22:41;32.30;82.60
21805;DHT22;11064;47.102;15.452;2023-06-22T12:25:10;32.60;84.00
21805;DHT22;11064;47.102;15.452;2023-06-22T12:27:36;32.50;81.20
21805;DHT22;11064;47.102;15.452;2023-06-22T12:30:03;32.90;82.80
21805;DHT22;11064;47.102;15.452;2023-06-22T12:32:29;32.90;81.30
21805;DHT22;11064;47.102;15.452;2023-06-22T12:34:56;32.90;78.70
21805;DHT22;11064;47.102;15.452;2023-06-22T12:37:23;32.60;80.70
21805;DHT22;11064;47.102;15.452;2023-06-22T12:39:49;32.70;80.50
21805;DHT22;11064;47.102;15.452;2023-06-22T12:42:16;32.80;80.90
21805;DHT22;11064;47.102;15.452;2023-06-22T12:44:42;32.80;81.60
21805;DHT22;11064;47.102;15.452;2023-06-22T12:47:08;32.50;80.00
21805;DHT22;11064;47.102;15.452;2023-06-22T12:49:35;32.70;79.90
21805;DHT22;11064;47.102;15.452;2023-06-22T12:52:01;32.40;82.30
21805;DHT22;11064;47.102;15.452;2023-06-22T12:54:27;32.30;79.40
21805;DHT22;11064;47.102;15.452;2023-06-22T12:56:56;32.60;81.50
21805;DHT22;11064;47.102;15.452;2023-06-22T12:59:22;32.50;81.30
21805;DHT22;11064;47.102;15.452;2023-06-22T13:01:48;32.70;79.80
21805;DHT22;11064;47.102;15.452;2023-06-22T13:04:13;32.70;78.70
21805;DHT22;11064;47.102;15.452;2023-06-22T13:06:41;33.00;80.50
21805;DHT22;11064;47.102;15.452;2023-06-22T13:09:09;33.00;77.50
21805;DHT22;11064;47.102;15.452;2023-06-22T13:11:34;32.90;78.10
21805;DHT22;11064;47.102;15.452;2023-06-22T13:14:00;33.10;78.20
21805;DHT22;11064;47.102;15.452;2023-06-22T13:16:26;33.30;77.40
21805;DHT22;11064;47.102;15.452;2023-06-22T13:18:52;33.40;72.80
21805;DHT22;11064;47.102;15.452;2023-06-22T13:21:18;33.70;78.40
21805;DHT22;11064;47.102;15.452;2023-06-22T13:23:43;33.90;75.50
21805;DHT22;11064;47.102;15.452;2023-06-22T13:26:09;33.90;75.10
21805;DHT22;11064;47.102;15.452;2023-06-22T13:28:35;34.20;76.10
21805;DHT22;11064;47.102;15.452;2023-06-22T13:31:01;34.20;76.00
21805;DHT22;11064;47.102;15.452;2023-06-22T13:33:26;34.20;75.00
21805;DHT22;11064;47.102;15.452;2023-06-22T13:35:52;33.60;74.80
21805;DHT22;11064;47.102;15.452;2023-06-22T13:38:18;33.90;74.30
21805;DHT22;11064;47.102;15.452;2023-06-22T13:40:44;34.20;75.60
21805;DHT22;11064;47.102;15.452;2023-06-22T13:43:10;33.90;73.70
21805;DHT22;11064;47.102;15.452;2023-06-22T13:45:36;33.60;76.20
21805;DHT22;11064;47.102;15.452;2023-06-22T13:48:01;33.50;76.80
21805;DHT22;11064;47.102;15.452;2023-06-22T13:50:36;33.50;77.60
21805;DHT22;11064;47.102;15.452;2023-06-22T13:53:02;33.60;76.10
21805;DHT22;11064;47.102;15.452;2023-06-22T13:55:28;33.60;76.30
21805;DHT22;11064;47.102;15.452;2023-06-22T13:57:54;33.70;78.30
21805;DHT22;11064;47.102;15.452;2023-06-22T14:00:20;33.60;75.40
21805;DHT22;11064;47.102;15.452;2023-06-22T14:02:46;33.40;70.70
21805;DHT22;11064;47.102;15.452;2023-06-22T14:05:12;33.10;74.30
21805;DHT22;11064;47.102;15.452;2023-06-22T14:07:37;33.10;75.80
21805;DHT22;11064;47.102;15.452;2023-06-22T14:10:03;32.90;74.20
21805;DHT22;11064;47.102;15.452;2023-06-22T14:12:29;33.30;74.80
21805;DHT22;11064;47.102;15.452;2023-06-22T14:14:55;33.20;74.50
21805;DHT22;11064;47.102;15.452;2023-06-22T14:17:23;33.30;75.20
21805;DHT22;11064;47.102;15.452;2023-06-22T14:19:52;33.30;71.40
21805;DHT22;11064;47.102;15.452;2023-06-22T14:22:19;32.90;73.10
21805;DHT22;11064;47.102;15.452;2023-06-22T14:24:46;32.60;77.10
21805;DHT22;11064;47.102;15.452;2023-06-22T14:27:12;32.80;78.10
21805;DHT22;11064;47.102;15.452;2023-06-22T14:29:38;32.90;76.00
21805;DHT22;11064;47.102;15.452;2023-06-22T14:32:04;33.10;75.30
21805;DHT22;11064;47.102;15.452;2023-06-22T14:34:32;33.50;76.60
21805;DHT22;11064;47.102;15.452;2023-06-22T14:36:58;33.70;75.40
21805;DHT22;11064;47.102;15.452;2023-06-22T14:39:24;33.70;75.90
21805;DHT22;11064;47.102;15.452;2023-06-22T14:41:49;33.30;75.40
21805;DHT22;11064;47.102;15.452;2023-06-22T14:44:15;33.60;75.30
21805;DHT22;11064;47.102;15.452;2023-06-22T14:46:41;33.40;73.90
21805;DHT22;11064;47.102;15.452;2023-06-22T14:49:07;33.50;73.50
21805;DHT22;11064;47.102;15.452;2023-06-22T14:51:32;33.50;74.10
21805;DHT22;11064;47.102;15.452;2023-06-22T14:53:59;33.30;75.00
21805;DHT22;11064;47.102;15.452;2023-06-22T14:56:25;33.30;72.90
21805;DHT22;11064;47.102;15.452;2023-06-22T14:58:51;33.00;73.00
21805;DHT22;11064;47.102;15.452;2023-06-22T15:01:17;33.10;75.30
21805;DHT22;11064;47.102;15.452;2023-06-22T15:03:44;33.00;73.40
21805;DHT22;11064;47.102;15.452;2023-06-22T15:06:10;33.20;73.80
21805;DHT22;11064;47.102;15.452;2023-06-22T15:08:39;33.20;73.90
21805;DHT22;11064;47.102;15.452;2023-06-22T15:11:05;33.40;75.20
21805;DHT22;11064;47.102;15.452;2023-06-22T15:13:31;33.50;73.00
21805;DHT22;11064;47.102;15.452;2023-06-22T15:16:00;33.60;72.90
21805;DHT22;11064;47.102;15.452;2023-06-22T15:18:26;33.70;73.00
21805;DHT22;11064;47.102;15.452;2023-06-22T15:20:58;34.20;72.00
21805;DHT22;11064;47.102;15.452;2023-06-22T15:23:25;34.80;70.40
21805;DHT22;11064;47.102;15.452;2023-06-22T15:25:51;35.60;68.10
21805;DHT22;11064;47.102;15.452;2023-06-22T15:28:17;35.60;66.60
21805;DHT22;11064;47.102;15.452;2023-06-22T15:30:43;36.30;65.70
21805;DHT22;11064;47.102;15.452;2023-06-22T15:33:09;36.60;63.20
21805;DHT22;11064;47.102;15.452;2023-06-22T15:35:35;37.00;62.60
21805;DHT22;11064;47.102;15.452;2023-06-22T15:38:01;36.90;61.80
21805;DHT22;11064;47.102;15.452;2023-06-22T15:40:27;36.70;61.70
21805;DHT22;11064;47.102;15.452;2023-06-22T15:42:53;36.30;62.20
21805;DHT22;11064;47.102;15.452;2023-06-22T15:45:19;36.10;63.20
21805;DHT22;11064;47.102;15.452;2023-06-22T15:47:44;36.50;64.50
21805;DHT22;11064;47.102;15.452;2023-06-22T15:50:10;36.60;62.90
21805;DHT22;11064;47.102;15.452;2023-06-22T15:52:36;36.80;62.70
21805;DHT22;11064;47.102;15.452;2023-06-22T15:55:02;36.60;62.70
21805;DHT22;11064;47.102;15.452;2023-06-22T15:57:28;36.60;63.70
21805;DHT22;11064;47.102;15.452;2023-06-22T15:59:54;36.90;64.30
21805;DHT22;11064;47.102;15.452;2023-06-22T16:02:21;37.10;62.50
21805;DHT22;11064;47.102;15.452;2023-06-22T16:04:47;37.30;61.00
21805;DHT22;11064;47.102;15.452;2023-06-22T16:07:13;37.40;61.60
21805;DHT22;11064;47.102;15.452;2023-06-22T16:09:39;36.90;61.90
21805;DHT22;11064;47.102;15.452;2023-06-22T16:12:05;37.30;61.90
21805;DHT22;11064;47.102;15.452;2023-06-22T16:14:31;37.50;60.90
21805;DHT22;11064;47.102;15.452;2023-06-22T16:16:57;37.30;59.70
21805;DHT22;11064;47.102;15.452;2023-06-22T16:19:23;37.20;60.90
21805;DHT22;11064;47.102;15.452;2023-06-22T16:21:49;36.80;61.70
21805;DHT22;11064;47.102;15.452;2023-06-22T16:24:15;36.50;62.40
21805;DHT22;11064;47.102;15.452;2023-06-22T16:26:42;35.70;63.60
21805;DHT22;11064;47.102;15.452;2023-06-22T16:29:09;35.40;66.40
21805;DHT22;11064;47.102;15.452;2023-06-22T16:31:36;34.80;68.30
21805;DHT22;11064;47.102;15.452;2023-06-22T16:34:02;34.50;69.30
21805;DHT22;11064;47.102;15.452;2023-06-22T16:36:28;34.30;71.10
21805;DHT22;11064;47.102;15.452;2023-06-22T16:38:54;34.20;71.60
21805;DHT22;11064;47.102;15.452;2023-06-22T16:41:20;33.70;71.10
21805;DHT22;11064;47.102;15.452;2023-06-22T16:43:46;33.40;73.20
21805;DHT22;11064;47.102;15.452;2023-06-22T16:46:12;33.20;74.00
21805;DHT22;11064;47.102;15.452;2023-06-22T16:48:39;32.80;75.30
21805;DHT22;11064;47.102;15.452;2023-06-22T16:51:06;32.50;77.30
21805;DHT22;11064;47.102;15.452;2023-06-22T16:53:32;32.40;76.80
21805;DHT22;11064;47.102;15.452;2023-06-22T16:55:59;32.10;78.70
21805;DHT22;11064;47.102;15.452;2023-06-22T16:58:25;31.80;81.00
21805;DHT22;11064;47.102;15.452;2023-06-22T17:00:51;31.10;82.10
21805;DHT22;11064;47.102;15.452;2023-06-22T17:03:29;30.50;83.20
21805;DHT22;11064;47.102;15.452;2023-06-22T17:05:58;30.00;86.70
21805;DHT22;11064;47.102;15.452;2023-06-22T17:08:29;29.60;88.70
21805;DHT22;11064;47.102;15.452;2023-06-22T17:10:58;29.20;90.50
21805;DHT22;11064;47.102;15.452;2023-06-22T17:13:24;29.00;91.10
21805;DHT22;11064;47.102;15.452;2023-06-22T17:15:59;28.80;92.00
21805;DHT22;11064;47.102;15.452;2023-06-22T17:18:25;28.60;93.10
21805;DHT22;11064;47.102;15.452;2023-06-22T17:20:52;28.50;93.80
21805;DHT22;11064;47.102;15.452;2023-06-22T17:23:18;28.40;94.40
21805;DHT22;11064;47.102;15.452;2023-06-22T17:25:46;28.30;95.40
21805;DHT22;11064;47.102;15.452;2023-06-22T17:28:12;28.10;96.20
21805;DHT22;11064;47.102;15.452;2023-06-22T17:30:38;28.00;97.20
21805;DHT22;11064;47.102;15.452;2023-06-22T17:33:08;27.90;98.50
21805;DHT22;11064;47.102;15.452;2023-06-22T17:35:48;27.80;99.90
21805;DHT22;11064;47.102;15.452;2023-06-22T17:38:21;27.70;99.90
21805;DHT22;11064;47.102;15.452;2023-06-22T17:40:48;27.60;99.90
21805;DHT22;11064;47.102;15.452;2023-06-22T17:43:18;27.50;99.90
21805;DHT22;11064;47.102;15.452;2023-06-22T17:45:44;27.30;99.90
21805;DHT22;11064;47.102;15.452;2023-06-22T17:48:11;27.20;99.90
21805;DHT22;11064;47.102;15.452;2023-06-22T17:50:42;27.20;99.90
21805;DHT22;11064;47.102;15.452;2023-06-22T17:53:11;27.10;99.90
21805;DHT22;11064;47.102;15.452;2023-06-22T17:55:38;27.10;99.90
21805;DHT22;11064;47.102;15.452;2023-06-22T17:58:05;27.10;99.90
21805;DHT22;11064;47.102;15.452;2023-06-22T18:00:31;27.10;99.90
21805;DHT22;11064;47.102;15.452;2023-06-22T18:02:58;27.10;99.90
21805;DHT22;11064;47.102;15.452;2023-06-22T18:05:33;27.10;99.90
21805;DHT22;11064;47.102;15.452;2023-06-22T18:08:04;27.00;99.90
21805;DHT22;11064;47.102;15.452;2023-06-22T18:10:32;27.00;99.90
21805;DHT22;11064;47.102;15.452;2023-06-22T18:12:59;26.90;99.90
21805;DHT22;11064;47.102;15.452;2023-06-22T18:15:26;26.90;99.90
21805;DHT22;11064;47.102;15.452;2023-06-22T18:17:53;26.80;99.90
21805;DHT22;11064;47.102;15.452;2023-06-22T18:20:20;26.70;99.90
21805;DHT22;11064;47.102;15.452;2023-06-22T18:22:49;26.50;99.90
21805;DHT22;11064;47.102;15.452;2023-06-22T18:25:16;26.50;99.90
21805;DHT22;11064;47.102;15.452;2023-06-22T18:27:47;26.40;99.90
21805;DHT22;11064;47.102;15.452;2023-06-22T18:30:16;26.30;99.90
21805;DHT22;11064;47.102;15.452;2023-06-22T18:32:42;26.20;99.90
21805;DHT22;11064;47.102;15.452;2023-06-22T18:35:10;26.20;99.90
21805;DHT22;11064;47.102;15.452;2023-06-22T18:37:39;26.20;99.90
21805;DHT22;11064;47.102;15.452;2023-06-22T18:40:07;26.10;99.90
21805;DHT22;11064;47.102;15.452;2023-06-22T18:42:41;26.00;99.90
21805;DHT22;11064;47.102;15.452;2023-06-22T18:45:26;26.00;99.90
21805;DHT22;11064;47.102;15.452;2023-06-22T18:48:05;26.00;99.90
21805;DHT22;11064;47.102;15.452;2023-06-22T18:50:50;26.00;99.90
21805;DHT22;11064;47.102;15.452;2023-06-22T18:53:26;26.00;99.90
21805;DHT22;11064;47.102;15.452;2023-06-22T18:56:10;26.00;99.90
21805;DHT22;11064;47.102;15.452;2023-06-22T18:58:36;25.90;99.90
21805;DHT22;11064;47.102;15.452;2023-06-22T19:01:17;25.90;99.90
21805;DHT22;11064;47.102;15.452;2023-06-22T19:03:44;25.90;99.90
21805;DHT22;11064;47.102;15.452;2023-06-22T19:06:10;25.90;99.90
21805;DHT22;11064;47.102;15.452;2023-06-22T19:09:14;25.90;99.90
21805;DHT22;11064;47.102;15.452;2023-06-22T19:11:40;25.80;99.90
21805;DHT22;11064;47.102;15.452;2023-06-22T19:14:09;25.80;99.90